sensor_id;sensor_type;location;lat;lon;timestamp;pressure;altitude;pressure_sealevel;temperature;humidity
5777;BME280;2914;42.668;23.346;2022-08-06T00:01:03;94380.05;;;25.65;56.77
5777;BME280;2914;42.668;23.346;2022-08-06T00:03:32;94375.27;;;25.55;56.99
5777;BME280;2914;42.668;23.346;2022-08-06T00:06:02;94381.05;;;25.23;58.25
5777;BME280;2914;42.668;23.346;2022-08-06T00:08:31;94384.63;;;25.38;58.07
5777;BME280;2914;42.668;23.346;2022-08-06T00:11:00;94384.31;;;25.35;58.48
5777;BME280;2914;42.668;23.346;2022-08-06T00:13:30;94387.74;;;25.21;59.18
5777;BME280;2914;42.668;23.346;2022-08-06T00:15:59;94386.58;;;25.17;59.03
5777;BME280;2914;42.668;23.346;2022-08-06T00:18:28;94391.97;;;24.79;59.86
5777;BME280;2914;42.668;23.346;2022-08-06T00:20:58;94389.84;;;24.81;59.64
5777;BME280;2914;42.668;23.346;2022-08-06T00:23:28;94385.21;;;24.67;59.98
5777;BME280;2914;42.668;23.346;2022-08-06T00:25:57;94386.80;;;24.65;59.69
5777;BME280;2914;42.668;23.346;2022-08-06T00:28:27;94384.66;;;24.55;59.49
5777;BME280;2914;42.668;23.346;2022-08-06T00:30:56;94390.70;;;24.27;59.85
5777;BME280;2914;42.668;23.346;2022-08-06T00:33:26;94389.02;;;24.35;59.94
5777;BME280;2914;42.668;23.346;2022-08-06T00:35:55;94388.94;;;24.54;59.51
5777;BME280;2914;42.668;23.346;2022-08-06T00:38:24;94385.41;;;24.42;59.55
5777;BME280;2914;42.668;23.346;2022-08-06T00:40:54;94385.16;;;24.55;58.81
5777;BME280;2914;42.668;23.346;2022-08-06T00:43:24;94394.83;;;24.63;58.59
5777;BME280;2914;42.668;23.346;2022-08-06T00:45:53;94389.86;;;24.69;58.64
5777;BME280;2914;42.668;23.346;2022-08-06T00:48:22;94386.81;;;24.77;57.45
5777;BME280;2914;42.668;23.346;2022-08-06T00:50:52;94383.16;;;24.83;57.45
5777;BME280;2914;42.668;23.346;2022-08-06T00:53:21;94386.16;;;24.84;57.24
5777;BME280;2914;42.668;23.346;2022-08-06T00:55:50;94384.81;;;24.84;57.39
5777;BME280;2914;42.668;23.346;2022-08-06T00:58:19;94386.97;;;24.97;56.85
5777;BME280;2914;42.668;23.346;2022-08-06T01:00:48;94385.38;;;24.98;57.62
5777;BME280;2914;42.668;23.346;2022-08-06T01:03:17;94389.31;;;25.05;57.38
5777;BME280;2914;42.668;23.346;2022-08-06T01:05:47;94388.77;;;25.05;56.86
5777;BME280;2914;42.668;23.346;2022-08-06T01:08:16;94392.66;;;24.98;57.76
5777;BME280;2914;42.668;23.346;2022-08-06T01:10:46;94389.36;;;24.84;57.84
5777;BME280;2914;42.668;23.346;2022-08-06T01:13:15;94381.06;;;24.85;57.58
5777;BME280;2914;42.668;23.346;2022-08-06T01:15:48;94390.33;;;24.89;56.86
5777;BME280;2914;42.668;23.346;2022-08-06T01:18:18;94388.56;;;24.95;56.15
5777;BME280;2914;42.668;23.346;2022-08-06T01:20:54;94378.58;;;24.96;57.20
5777;BME280;2914;42.668;23.346;2022-08-06T01:23:32;94377.89;;;24.88;57.48
5777;BME280;2914;42.668;23.346;2022-08-06T01:26:28;94379.92;;;24.84;58.29
5777;BME280;2914;42.668;23.346;2022-08-06T01:29:00;94377.76;;;24.71;58.98
5777;BME280;2914;42.668;23.346;2022-08-06T01:31:34;94381.11;;;24.76;58.93
5777;BME280;2914;42.668;23.346;2022-08-06T01:34:07;94376.53;;;24.77;58.95
5777;BME280;2914;42.668;23.346;2022-08-06T01:36:40;94378.24;;;24.80;59.16
5777;BME280;2914;42.668;23.346;2022-08-06T01:39:12;94377.31;;;24.75;59.49
5777;BME280;2914;42.668;23.346;2022-08-06T01:44:25;94371.56;;;24.83;59.12
5777;BME280;2914;42.668;23.346;2022-08-06T01:46:57;94376.70;;;24.72;59.36
5777;BME280;2914;42.668;23.346;2022-08-06T01:49:28;94369.97;;;24.72;59.24
5777;BME280;2914;42.668;23.346;2022-08-06T01:52:00;94372.09;;;24.70;59.47
5777;BME280;2914;42.668;23.346;2022-08-06T01:54:33;94372.16;;;24.73;59.40
5777;BME280;2914;42.668;23.346;2022-08-06T01:57:03;94368.37;;;24.74;59.39
5777;BME280;2914;42.668;23.346;2022-08-06T01:59:37;94376.47;;;24.74;59.08
5777;BME280;2914;42.668;23.346;2022-08-06T02:02:08;94359.59;;;24.67;59.11
5777;BME280;2914;42.668;23.346;2022-08-06T02:04:40;94366.88;;;24.66;59.83
5777;BME280;2914;42.668;23.346;2022-08-06T02:07:12;94362.29;;;24.67;59.95
5777;BME280;2914;42.668;23.346;2022-08-06T02:09:43;94366.52;;;24.63;59.85
5777;BME280;2914;42.668;23.346;2022-08-06T02:12:16;94361.13;;;24.53;60.81
5777;BME280;2914;42.668;23.346;2022-08-06T02:14:48;94363.94;;;24.47;61.07
5777;BME280;2914;42.668;23.346;2022-08-06T02:17:19;94359.44;;;24.38;61.11
5777;BME280;2914;42.668;23.346;2022-08-06T02:19:51;94356.71;;;24.26;61.62
5777;BME280;2914;42.668;23.346;2022-08-06T02:22:23;94350.88;;;24.29;61.23
5777;BME280;2914;42.668;23.346;2022-08-06T02:24:53;94347.41;;;24.31;61.21
5777;BME280;2914;42.668;23.346;2022-08-06T02:27:23;94344.20;;;24.32;60.95
5777;BME280;2914;42.668;23.346;2022-08-06T02:29:55;94342.80;;;24.29;61.16
5777;BME280;2914;42.668;23.346;2022-08-06T02:32:24;94344.95;;;24.30;60.94
5777;BME280;2914;42.668;23.346;2022-08-06T02:34:53;94348.80;;;24.22;61.57
5777;BME280;2914;42.668;23.346;2022-08-06T02:37:26;94342.66;;;24.24;61.79
5777;BME280;2914;42.668;23.346;2022-08-06T02:42:42;94351.89;;;24.16;62.48
5777;BME280;2914;42.668;23.346;2022-08-06T02:45:17;94353.17;;;24.14;62.33
5777;BME280;2914;42.668;23.346;2022-08-06T02:47:48;94349.67;;;24.13;62.43
5777;BME280;2914;42.668;23.346;2022-08-06T02:50:21;94351.66;;;24.18;62.44
5777;BME280;2914;42.668;23.346;2022-08-06T02:52:54;94350.11;;;24.19;62.51
5777;BME280;2914;42.668;23.346;2022-08-06T02:55:30;94358.36;;;24.15;62.52
5777;BME280;2914;42.668;23.346;2022-08-06T02:57:59;94355.43;;;24.17;62.36
5777;BME280;2914;42.668;23.346;2022-08-06T03:00:28;94361.22;;;24.11;62.13
5777;BME280;2914;42.668;23.346;2022-08-06T03:03:00;94359.91;;;24.02;62.43
5777;BME280;2914;42.668;23.346;2022-08-06T03:05:31;94362.23;;;23.98;62.48
5777;BME280;2914;42.668;23.346;2022-08-06T03:08:02;94361.65;;;23.96;62.51
5777;BME280;2914;42.668;23.346;2022-08-06T03:10:34;94373.02;;;23.89;62.92
5777;BME280;2914;42.668;23.346;2022-08-06T03:13:06;94372.51;;;23.80;63.20
5777;BME280;2914;42.668;23.346;2022-08-06T03:15:37;94371.61;;;23.86;63.41
5777;BME280;2914;42.668;23.346;2022-08-06T03:18:08;94377.80;;;23.87;63.07
5777;BME280;2914;42.668;23.346;2022-08-06T03:20:39;94376.39;;;23.94;62.80
5777;BME280;2914;42.668;23.346;2022-08-06T03:23:11;94380.27;;;23.98;62.27
5777;BME280;2914;42.668;23.346;2022-08-06T03:25:42;94380.73;;;23.95;62.46
5777;BME280;2914;42.668;23.346;2022-08-06T03:28:14;94378.95;;;23.88;62.80
5777;BME280;2914;42.668;23.346;2022-08-06T03:30:45;94378.59;;;23.76;63.52
5777;BME280;2914;42.668;23.346;2022-08-06T03:33:15;94380.26;;;23.67;63.47
5777;BME280;2914;42.668;23.346;2022-08-06T03:35:46;94377.95;;;23.62;63.86
5777;BME280;2914;42.668;23.346;2022-08-06T03:38:17;94370.45;;;23.64;63.73
5777;BME280;2914;42.668;23.346;2022-08-06T03:40:48;94372.45;;;23.68;63.93
5777;BME280;2914;42.668;23.346;2022-08-06T03:43:17;94366.56;;;23.69;65.50
5777;BME280;2914;42.668;23.346;2022-08-06T03:45:50;94368.71;;;23.88;64.12
5777;BME280;2914;42.668;23.346;2022-08-06T03:48:23;94373.39;;;23.83;64.16
5777;BME280;2914;42.668;23.346;2022-08-06T03:53:31;94365.61;;;23.84;64.64
5777;BME280;2914;42.668;23.346;2022-08-06T03:56:06;94374.16;;;23.81;64.71
5777;BME280;2914;42.668;23.346;2022-08-06T04:01:24;94375.86;;;23.94;64.55
5777;BME280;2914;42.668;23.346;2022-08-06T04:03:55;94378.55;;;23.85;64.63
5777;BME280;2914;42.668;23.346;2022-08-06T04:09:05;94381.86;;;23.78;65.24
5777;BME280;2914;42.668;23.346;2022-08-06T04:11:35;94389.36;;;23.76;65.08
5777;BME280;2914;42.668;23.346;2022-08-06T04:14:05;94394.53;;;23.68;65.38
5777;BME280;2914;42.668;23.346;2022-08-06T04:16:37;94390.19;;;23.67;65.68
5777;BME280;2914;42.668;23.346;2022-08-06T04:19:08;94390.63;;;23.73;65.20
5777;BME280;2914;42.668;23.346;2022-08-06T04:21:39;94390.08;;;23.83;65.59
5777;BME280;2914;42.668;23.346;2022-08-06T04:24:08;94400.31;;;23.83;66.21
5777;BME280;2914;42.668;23.346;2022-08-06T04:26:39;94396.03;;;24.03;65.80
5777;BME280;2914;42.668;23.346;2022-08-06T04:29:11;94390.33;;;23.91;66.09
5777;BME280;2914;42.668;23.346;2022-08-06T04:31:41;94390.27;;;24.00;65.93
5777;BME280;2914;42.668;23.346;2022-08-06T04:34:12;94401.56;;;24.09;66.04
5777;BME280;2914;42.668;23.346;2022-08-06T04:39:21;94398.78;;;24.48;65.90
5777;BME280;2914;42.668;23.346;2022-08-06T04:41:51;94400.45;;;24.61;65.19
5777;BME280;2914;42.668;23.346;2022-08-06T04:44:21;94405.45;;;24.79;63.98
5777;BME280;2914;42.668;23.346;2022-08-06T04:46:51;94408.48;;;24.82;63.48
5777;BME280;2914;42.668;23.346;2022-08-06T04:49:21;94415.59;;;24.98;63.25
5777;BME280;2914;42.668;23.346;2022-08-06T04:51:50;94411.22;;;25.09;62.34
5777;BME280;2914;42.668;23.346;2022-08-06T04:54:19;94412.98;;;25.03;61.40
5777;BME280;2914;42.668;23.346;2022-08-06T04:59:32;94408.64;;;25.26;61.34
5777;BME280;2914;42.668;23.346;2022-08-06T05:02:01;94418.03;;;25.23;61.59
5777;BME280;2914;42.668;23.346;2022-08-06T05:04:31;94420.75;;;25.35;60.71
5777;BME280;2914;42.668;23.346;2022-08-06T05:07:06;94418.44;;;25.41;60.54
5777;BME280;2914;42.668;23.346;2022-08-06T05:09:36;94414.25;;;25.48;60.32
5777;BME280;2914;42.668;23.346;2022-08-06T05:12:11;94416.64;;;25.59;59.79
5777;BME280;2914;42.668;23.346;2022-08-06T05:14:43;94420.41;;;25.46;59.93
5777;BME280;2914;42.668;23.346;2022-08-06T05:17:14;94422.71;;;25.51;60.94
5777;BME280;2914;42.668;23.346;2022-08-06T05:19:46;94418.61;;;25.63;60.61
5777;BME280;2914;42.668;23.346;2022-08-06T05:22:17;94420.55;;;25.80;60.45
5777;BME280;2914;42.668;23.346;2022-08-06T05:24:47;94424.38;;;25.96;59.96
5777;BME280;2914;42.668;23.346;2022-08-06T05:27:17;94419.77;;;26.08;59.70
5777;BME280;2914;42.668;23.346;2022-08-06T05:32:24;94415.64;;;26.34;58.04
5777;BME280;2914;42.668;23.346;2022-08-06T05:34:55;94423.20;;;26.35;59.16
5777;BME280;2914;42.668;23.346;2022-08-06T05:37:24;94416.75;;;26.53;59.78
5777;BME280;2914;42.668;23.346;2022-08-06T05:39:53;94421.28;;;26.64;58.52
5777;BME280;2914;42.668;23.346;2022-08-06T05:42:22;94422.52;;;26.73;58.08
5777;BME280;2914;42.668;23.346;2022-08-06T05:44:51;94397.06;;;26.72;57.57
5777;BME280;2914;42.668;23.346;2022-08-06T05:47:23;94426.04;;;27.08;57.29
5777;BME280;2914;42.668;23.346;2022-08-06T05:49:56;94419.70;;;27.19;56.42
5777;BME280;2914;42.668;23.346;2022-08-06T05:52:28;94420.45;;;27.34;56.83
5777;BME280;2914;42.668;23.346;2022-08-06T05:57:39;94421.98;;;27.28;53.66
5777;BME280;2914;42.668;23.346;2022-08-06T06:00:13;94420.00;;;27.23;52.97
5777;BME280;2914;42.668;23.346;2022-08-06T06:05:23;94418.98;;;27.66;54.64
5777;BME280;2914;42.668;23.346;2022-08-06T06:07:54;94418.80;;;27.75;53.36
5777;BME280;2914;42.668;23.346;2022-08-06T06:10:24;94418.12;;;27.87;52.80
5777;BME280;2914;42.668;23.346;2022-08-06T06:12:55;94414.77;;;28.00;53.26
5777;BME280;2914;42.668;23.346;2022-08-06T06:15:25;94419.80;;;28.13;52.98
5777;BME280;2914;42.668;23.346;2022-08-06T06:18:09;94414.95;;;28.18;51.52
5777;BME280;2914;42.668;23.346;2022-08-06T06:23:24;94412.75;;;28.42;51.79
5777;BME280;2914;42.668;23.346;2022-08-06T06:25:56;94413.59;;;28.45;51.93
5777;BME280;2914;42.668;23.346;2022-08-06T06:28:28;94413.95;;;28.54;51.29
5777;BME280;2914;42.668;23.346;2022-08-06T06:31:02;94406.46;;;28.64;51.14
5777;BME280;2914;42.668;23.346;2022-08-06T06:36:19;94410.92;;;28.50;49.75
5777;BME280;2914;42.668;23.346;2022-08-06T06:38:51;94406.14;;;28.63;50.56
5777;BME280;2914;42.668;23.346;2022-08-06T06:41:24;94407.14;;;28.51;48.91
5777;BME280;2914;42.668;23.346;2022-08-06T06:43:56;94405.75;;;28.19;49.54
5777;BME280;2914;42.668;23.346;2022-08-06T06:46:31;94395.80;;;28.27;50.14
5777;BME280;2914;42.668;23.346;2022-08-06T06:49:03;94398.98;;;28.49;49.59
5777;BME280;2914;42.668;23.346;2022-08-06T06:51:36;94393.03;;;28.82;49.85
5777;BME280;2914;42.668;23.346;2022-08-06T06:54:06;94391.05;;;29.12;49.17
5777;BME280;2914;42.668;23.346;2022-08-06T06:56:42;94385.73;;;29.27;48.43
5777;BME280;2914;42.668;23.346;2022-08-06T06:59:14;94390.17;;;29.47;47.70
5777;BME280;2914;42.668;23.346;2022-08-06T07:01:47;94383.42;;;29.54;46.63
5777;BME280;2914;42.668;23.346;2022-08-06T07:04:18;94379.66;;;29.66;46.34
5777;BME280;2914;42.668;23.346;2022-08-06T07:06:50;94387.29;;;29.21;46.09
5777;BME280;2914;42.668;23.346;2022-08-06T07:09:27;94360.48;;;28.84;47.00
5777;BME280;2914;42.668;23.346;2022-08-06T07:14:45;94388.65;;;28.78;47.98
5777;BME280;2914;42.668;23.346;2022-08-06T07:17:15;94385.55;;;28.99;47.97
5777;BME280;2914;42.668;23.346;2022-08-06T07:19:47;94379.70;;;28.77;48.48
5777;BME280;2914;42.668;23.346;2022-08-06T07:22:18;94376.63;;;28.64;48.99
5777;BME280;2914;42.668;23.346;2022-08-06T07:24:54;94382.52;;;28.58;49.20
5777;BME280;2914;42.668;23.346;2022-08-06T07:27:25;94375.89;;;28.76;48.63
5777;BME280;2914;42.668;23.346;2022-08-06T07:32:43;94365.52;;;29.61;49.05
5777;BME280;2914;42.668;23.346;2022-08-06T07:35:14;94362.64;;;29.93;48.21
5777;BME280;2914;42.668;23.346;2022-08-06T07:40:27;94361.87;;;30.11;46.58
5777;BME280;2914;42.668;23.346;2022-08-06T07:43:00;94360.00;;;30.29;47.77
5777;BME280;2914;42.668;23.346;2022-08-06T07:45:31;94350.22;;;30.57;46.88
5777;BME280;2914;42.668;23.346;2022-08-06T07:48:05;94352.64;;;30.82;46.13
5777;BME280;2914;42.668;23.346;2022-08-06T07:50:36;94357.00;;;31.06;45.68
5777;BME280;2914;42.668;23.346;2022-08-06T07:53:08;94359.98;;;30.96;45.66
5777;BME280;2914;42.668;23.346;2022-08-06T07:55:39;94358.08;;;31.12;45.49
5777;BME280;2914;42.668;23.346;2022-08-06T07:58:08;94352.59;;;31.23;45.56
5777;BME280;2914;42.668;23.346;2022-08-06T08:00:39;94362.06;;;31.43;45.13
5777;BME280;2914;42.668;23.346;2022-08-06T08:03:10;94361.75;;;31.55;44.31
5777;BME280;2914;42.668;23.346;2022-08-06T08:08:35;94360.59;;;31.79;42.25
5777;BME280;2914;42.668;23.346;2022-08-06T08:11:06;94353.42;;;31.26;42.71
5777;BME280;2914;42.668;23.346;2022-08-06T08:13:37;94348.03;;;30.85;43.59
5777;BME280;2914;42.668;23.346;2022-08-06T08:16:08;94351.28;;;30.84;44.29
5777;BME280;2914;42.668;23.346;2022-08-06T08:18:40;94350.23;;;30.49;45.23
5777;BME280;2914;42.668;23.346;2022-08-06T08:21:11;94352.36;;;30.26;45.59
5777;BME280;2914;42.668;23.346;2022-08-06T08:23:42;94352.97;;;30.54;45.78
5777;BME280;2914;42.668;23.346;2022-08-06T08:26:12;94352.67;;;30.66;45.67
5777;BME280;2914;42.668;23.346;2022-08-06T08:28:41;94349.14;;;30.60;44.95
5777;BME280;2914;42.668;23.346;2022-08-06T08:31:12;94346.70;;;30.61;45.78
5777;BME280;2914;42.668;23.346;2022-08-06T08:33:41;94349.66;;;30.37;45.08
5777;BME280;2914;42.668;23.346;2022-08-06T08:36:11;94345.87;;;30.51;45.28
5777;BME280;2914;42.668;23.346;2022-08-06T08:38:40;94346.15;;;30.75;44.22
5777;BME280;2914;42.668;23.346;2022-08-06T08:44:02;94353.20;;;30.73;43.33
5777;BME280;2914;42.668;23.346;2022-08-06T08:46:34;94345.59;;;30.81;42.98
5777;BME280;2914;42.668;23.346;2022-08-06T08:51:45;94345.48;;;31.29;42.32
5777;BME280;2914;42.668;23.346;2022-08-06T08:54:20;94343.63;;;31.17;40.93
5777;BME280;2914;42.668;23.346;2022-08-06T08:56:48;94338.16;;;31.22;41.30
5777;BME280;2914;42.668;23.346;2022-08-06T09:01:57;94347.64;;;31.35;39.98
5777;BME280;2914;42.668;23.346;2022-08-06T09:04:27;94345.98;;;31.42;41.61
5777;BME280;2914;42.668;23.346;2022-08-06T09:06:56;94344.33;;;31.51;40.30
5777;BME280;2914;42.668;23.346;2022-08-06T09:09:26;94341.09;;;31.44;37.86
5777;BME280;2914;42.668;23.346;2022-08-06T09:11:56;94344.38;;;31.41;38.48
5777;BME280;2914;42.668;23.346;2022-08-06T09:14:26;94336.00;;;31.22;38.36
5777;BME280;2914;42.668;23.346;2022-08-06T09:16:57;94339.87;;;30.69;38.00
5777;BME280;2914;42.668;23.346;2022-08-06T09:19:28;94339.61;;;30.60;37.36
5777;BME280;2914;42.668;23.346;2022-08-06T09:21:58;94332.26;;;30.76;37.88
5777;BME280;2914;42.668;23.346;2022-08-06T09:24:27;94333.89;;;30.75;38.47
5777;BME280;2914;42.668;23.346;2022-08-06T09:30:03;94325.73;;;30.72;38.36
5777;BME280;2914;42.668;23.346;2022-08-06T09:35:24;94322.41;;;31.01;38.26
5777;BME280;2914;42.668;23.346;2022-08-06T09:38:00;94320.81;;;30.87;38.35
5777;BME280;2914;42.668;23.346;2022-08-06T09:40:30;94323.53;;;30.87;38.04
5777;BME280;2914;42.668;23.346;2022-08-06T09:42:59;94328.94;;;30.95;37.33
5777;BME280;2914;42.668;23.346;2022-08-06T09:45:29;94321.84;;;31.02;37.99
5777;BME280;2914;42.668;23.346;2022-08-06T09:48:03;94318.32;;;31.01;37.12
5777;BME280;2914;42.668;23.346;2022-08-06T09:50:39;94316.67;;;31.13;37.62
5777;BME280;2914;42.668;23.346;2022-08-06T09:53:09;94331.64;;;31.16;37.18
5777;BME280;2914;42.668;23.346;2022-08-06T09:55:39;94328.34;;;31.26;36.92
5777;BME280;2914;42.668;23.346;2022-08-06T09:58:10;94317.44;;;31.32;36.85
5777;BME280;2914;42.668;23.346;2022-08-06T10:00:39;94326.67;;;31.41;37.46
5777;BME280;2914;42.668;23.346;2022-08-06T10:03:09;94319.08;;;31.33;37.16
5777;BME280;2914;42.668;23.346;2022-08-06T10:05:39;94313.58;;;31.38;37.23
5777;BME280;2914;42.668;23.346;2022-08-06T10:08:10;94313.92;;;31.23;37.08
5777;BME280;2914;42.668;23.346;2022-08-06T10:10:45;94314.70;;;31.32;37.06
5777;BME280;2914;42.668;23.346;2022-08-06T10:15:56;94299.63;;;31.55;38.00
5777;BME280;2914;42.668;23.346;2022-08-06T10:18:34;94301.53;;;31.59;37.33
5777;BME280;2914;42.668;23.346;2022-08-06T10:21:06;94300.42;;;31.55;37.02
5777;BME280;2914;42.668;23.346;2022-08-06T10:23:37;94305.45;;;31.30;36.39
5777;BME280;2914;42.668;23.346;2022-08-06T10:26:10;94292.99;;;31.11;36.34
5777;BME280;2914;42.668;23.346;2022-08-06T10:28:43;94295.51;;;30.76;36.65
5777;BME280;2914;42.668;23.346;2022-08-06T10:31:14;94295.19;;;30.93;36.96
5777;BME280;2914;42.668;23.346;2022-08-06T10:33:47;94283.51;;;30.77;37.20
5777;BME280;2914;42.668;23.346;2022-08-06T10:39:03;94294.36;;;31.08;37.47
5777;BME280;2914;42.668;23.346;2022-08-06T10:41:33;94294.08;;;31.10;36.77
5777;BME280;2914;42.668;23.346;2022-08-06T10:44:05;94288.33;;;31.22;37.03
5777;BME280;2914;42.668;23.346;2022-08-06T10:46:35;94284.75;;;31.29;36.67
5777;BME280;2914;42.668;23.346;2022-08-06T10:49:06;94292.61;;;31.41;36.44
5777;BME280;2914;42.668;23.346;2022-08-06T10:51:37;94277.03;;;31.49;37.06
5777;BME280;2914;42.668;23.346;2022-08-06T10:54:07;94277.86;;;31.44;37.55
5777;BME280;2914;42.668;23.346;2022-08-06T10:56:36;94275.34;;;31.56;36.96
5777;BME280;2914;42.668;23.346;2022-08-06T11:02:03;94271.13;;;31.26;36.68
5777;BME280;2914;42.668;23.346;2022-08-06T11:07:45;94285.82;;;31.33;36.35
5777;BME280;2914;42.668;23.346;2022-08-06T11:13:46;94275.13;;;31.47;36.48
5777;BME280;2914;42.668;23.346;2022-08-06T11:16:23;94263.66;;;31.50;35.67
5777;BME280;2914;42.668;23.346;2022-08-06T11:21:43;94266.88;;;31.65;35.71
5777;BME280;2914;42.668;23.346;2022-08-06T11:24:14;94263.53;;;31.78;35.85
5777;BME280;2914;42.668;23.346;2022-08-06T11:26:44;94256.91;;;31.87;35.96
5777;BME280;2914;42.668;23.346;2022-08-06T11:29:15;94255.80;;;31.93;36.80
5777;BME280;2914;42.668;23.346;2022-08-06T11:31:45;94260.52;;;31.80;36.11
5777;BME280;2914;42.668;23.346;2022-08-06T11:34:17;94257.30;;;31.73;35.49
5777;BME280;2914;42.668;23.346;2022-08-06T11:36:52;94256.55;;;31.59;36.10
5777;BME280;2914;42.668;23.346;2022-08-06T11:39:23;94259.79;;;31.64;35.55
5777;BME280;2914;42.668;23.346;2022-08-06T11:41:58;94263.84;;;31.72;35.51
5777;BME280;2914;42.668;23.346;2022-08-06T11:44:30;94267.92;;;31.74;35.33
5777;BME280;2914;42.668;23.346;2022-08-06T11:47:15;94264.87;;;31.84;34.98
5777;BME280;2914;42.668;23.346;2022-08-06T11:49:47;94256.91;;;31.87;35.01
5777;BME280;2914;42.668;23.346;2022-08-06T11:55:27;94258.25;;;31.92;34.79
5777;BME280;2914;42.668;23.346;2022-08-06T11:58:18;94262.92;;;31.89;34.66
5777;BME280;2914;42.668;23.346;2022-08-06T12:00:57;94256.88;;;31.95;35.00
5777;BME280;2914;42.668;23.346;2022-08-06T12:03:40;94257.75;;;31.88;35.04
5777;BME280;2914;42.668;23.346;2022-08-06T12:09:10;94242.47;;;31.89;35.48
5777;BME280;2914;42.668;23.346;2022-08-06T12:11:40;94244.93;;;31.86;35.31
5777;BME280;2914;42.668;23.346;2022-08-06T12:14:37;94245.55;;;31.75;35.29
5777;BME280;2914;42.668;23.346;2022-08-06T12:20:00;94257.53;;;31.76;35.00
5777;BME280;2914;42.668;23.346;2022-08-06T12:25:12;94254.98;;;31.43;34.67
5777;BME280;2914;42.668;23.346;2022-08-06T12:27:42;94247.17;;;31.28;34.36
5777;BME280;2914;42.668;23.346;2022-08-06T12:30:13;94251.84;;;31.15;34.35
5777;BME280;2914;42.668;23.346;2022-08-06T12:35:21;94241.74;;;31.21;34.23
5777;BME280;2914;42.668;23.346;2022-08-06T12:37:50;94232.78;;;31.18;34.06
5777;BME280;2914;42.668;23.346;2022-08-06T12:40:21;94238.71;;;31.30;34.08
5777;BME280;2914;42.668;23.346;2022-08-06T12:43:09;94234.32;;;31.37;33.46
5777;BME280;2914;42.668;23.346;2022-08-06T12:45:38;94228.81;;;31.44;33.74
5777;BME280;2914;42.668;23.346;2022-08-06T12:48:09;94221.97;;;31.50;33.54
5777;BME280;2914;42.668;23.346;2022-08-06T12:53:24;94227.80;;;31.80;33.42
5777;BME280;2914;42.668;23.346;2022-08-06T12:55:54;94226.48;;;31.72;34.01
5777;BME280;2914;42.668;23.346;2022-08-06T12:58:26;94234.18;;;31.62;33.59
5777;BME280;2914;42.668;23.346;2022-08-06T13:00:58;94228.53;;;31.43;32.50
5777;BME280;2914;42.668;23.346;2022-08-06T13:06:07;94218.81;;;31.27;33.48
5777;BME280;2914;42.668;23.346;2022-08-06T13:08:37;94213.70;;;31.20;33.90
5777;BME280;2914;42.668;23.346;2022-08-06T13:11:07;94214.52;;;31.16;34.22
5777;BME280;2914;42.668;23.346;2022-08-06T13:16:40;94218.90;;;31.11;34.91
5777;BME280;2914;42.668;23.346;2022-08-06T13:21:57;94211.77;;;31.23;34.23
5777;BME280;2914;42.668;23.346;2022-08-06T13:24:27;94207.42;;;31.20;34.34
5777;BME280;2914;42.668;23.346;2022-08-06T13:32:42;94206.83;;;31.28;33.32
5777;BME280;2914;42.668;23.346;2022-08-06T13:35:12;94206.85;;;31.23;33.34
5777;BME280;2914;42.668;23.346;2022-08-06T13:40:40;94202.64;;;31.46;34.01
5777;BME280;2914;42.668;23.346;2022-08-06T13:43:11;94199.91;;;31.46;34.13
5777;BME280;2914;42.668;23.346;2022-08-06T13:45:41;94196.38;;;31.45;33.93
5777;BME280;2914;42.668;23.346;2022-08-06T13:50:49;94193.05;;;31.56;33.75
5777;BME280;2914;42.668;23.346;2022-08-06T13:56:01;94194.66;;;31.62;33.39
5777;BME280;2914;42.668;23.346;2022-08-06T14:01:16;94192.56;;;31.49;32.56
5777;BME280;2914;42.668;23.346;2022-08-06T14:03:45;94191.23;;;31.41;32.54
5777;BME280;2914;42.668;23.346;2022-08-06T14:06:14;94184.41;;;31.44;32.94
5777;BME280;2914;42.668;23.346;2022-08-06T14:11:20;94191.81;;;31.36;32.46
5777;BME280;2914;42.668;23.346;2022-08-06T14:13:49;94190.77;;;31.29;32.78
5777;BME280;2914;42.668;23.346;2022-08-06T14:16:18;94189.66;;;31.33;32.28
5777;BME280;2914;42.668;23.346;2022-08-06T14:18:47;94183.38;;;31.32;32.08
5777;BME280;2914;42.668;23.346;2022-08-06T14:21:16;94179.37;;;31.22;33.01
5777;BME280;2914;42.668;23.346;2022-08-06T14:23:45;94186.70;;;31.24;33.43
5777;BME280;2914;42.668;23.346;2022-08-06T14:26:14;94183.18;;;31.21;33.58
5777;BME280;2914;42.668;23.346;2022-08-06T14:31:21;94176.64;;;31.22;33.35
5777;BME280;2914;42.668;23.346;2022-08-06T14:36:29;94188.91;;;31.19;33.76
5777;BME280;2914;42.668;23.346;2022-08-06T14:38:58;94187.84;;;31.15;33.95
5777;BME280;2914;42.668;23.346;2022-08-06T14:41:28;94192.73;;;31.16;34.11
5777;BME280;2914;42.668;23.346;2022-08-06T14:46:59;94187.06;;;31.07;34.57
5777;BME280;2914;42.668;23.346;2022-08-06T14:49:29;94184.63;;;30.98;34.42
5777;BME280;2914;42.668;23.346;2022-08-06T14:51:59;94189.22;;;31.10;34.38
5777;BME280;2914;42.668;23.346;2022-08-06T14:54:28;94179.98;;;31.06;34.45
5777;BME280;2914;42.668;23.346;2022-08-06T14:56:58;94179.19;;;31.03;34.77
5777;BME280;2914;42.668;23.346;2022-08-06T14:59:27;94174.52;;;31.11;35.01
5777;BME280;2914;42.668;23.346;2022-08-06T15:01:57;94174.23;;;31.15;35.07
5777;BME280;2914;42.668;23.346;2022-08-06T15:07:42;94174.27;;;31.05;33.98
5777;BME280;2914;42.668;23.346;2022-08-06T15:10:12;94187.36;;;31.03;33.74
5777;BME280;2914;42.668;23.346;2022-08-06T15:12:41;94179.97;;;31.01;33.75
5777;BME280;2914;42.668;23.346;2022-08-06T15:15:11;94184.34;;;30.99;33.57
5777;BME280;2914;42.668;23.346;2022-08-06T15:17:40;94185.17;;;31.00;33.63
5777;BME280;2914;42.668;23.346;2022-08-06T15:20:10;94177.80;;;31.00;33.65
5777;BME280;2914;42.668;23.346;2022-08-06T15:22:39;94177.52;;;31.12;33.97
5777;BME280;2914;42.668;23.346;2022-08-06T15:27:52;94171.52;;;31.10;34.58
5777;BME280;2914;42.668;23.346;2022-08-06T15:32:59;94167.98;;;31.12;34.91
5777;BME280;2914;42.668;23.346;2022-08-06T15:35:28;94175.61;;;31.10;35.25
5777;BME280;2914;42.668;23.346;2022-08-06T15:37:57;94173.16;;;31.11;35.21
5777;BME280;2914;42.668;23.346;2022-08-06T15:40:27;94179.73;;;31.00;34.78
5777;BME280;2914;42.668;23.346;2022-08-06T15:42:56;94167.73;;;31.06;34.79
5777;BME280;2914;42.668;23.346;2022-08-06T15:48:03;94168.27;;;31.00;34.28
5777;BME280;2914;42.668;23.346;2022-08-06T15:50:33;94183.84;;;30.89;33.91